sensor_id;sensor_type;location;lat;lon;timestamp;pressure;altitude;pressure_sealevel;temperature;humidity
43436;BME280;36399;51.444;-2.018;2023-10-19T00:00:05;97769.91;;;11.93;100.00
43436;BME280;36399;51.444;-2.018;2023-10-19T00:02:49;97766.59;;;11.88;100.00
43436;BME280;36399;51.444;-2.018;2023-10-19T00:05:17;97773.00;;;11.81;100.00
43436;BME280;36399;51.444;-2.018;2023-10-19T00:07:43;97773.13;;;11.77;100.00
43436;BME280;36399;51.444;-2.018;2023-10-19T00:10:10;97768.81;;;11.74;100.00
43436;BME280;36399;51.444;-2.018;2023-10-19T00:12:40;97761.97;;;11.70;100.00
43436;BME280;36399;51.444;-2.018;2023-10-19T00:15:06;97763.19;;;11.60;100.00
43436;BME280;36399;51.444;-2.018;2023-10-19T00:17:37;97749.38;;;11.55;100.00
43436;BME280;36399;51.444;-2.018;2023-10-19T00:20:06;97745.66;;;11.60;100.00
43436;BME280;36399;51.444;-2.018;2023-10-19T00:23:01;97747.09;;;11.69;100.00
43436;BME280;36399;51.444;-2.018;2023-10-19T00:25:32;97752.94;;;11.77;100.00
43436;BME280;36399;51.444;-2.018;2023-10-19T00:28:00;97749.09;;;11.87;100.00
43436;BME280;36399;51.444;-2.018;2023-10-19T00:30:29;97748.94;;;11.92;100.00
43436;BME280;36399;51.444;-2.018;2023-10-19T00:32:58;97745.34;;;11.94;100.00
43436;BME280;36399;51.444;-2.018;2023-10-19T00:35:35;97733.91;;;11.97;100.00
43436;BME280;36399;51.444;-2.018;2023-10-19T00:38:02;97743.44;;;11.99;100.00
43436;BME280;36399;51.444;-2.018;2023-10-19T00:40:53;97739.78;;;12.04;100.00
43436;BME280;36399;51.444;-2.018;2023-10-19T00:43:31;97744.94;;;12.07;100.00
43436;BME280;36399;51.444;-2.018;2023-10-19T00:46:04;97744.81;;;12.10;100.00
43436;BME280;36399;51.444;-2.018;2023-10-19T00:48:35;97741.16;;;12.14;100.00
43436;BME280;36399;51.444;-2.018;2023-10-19T00:51:03;97744.47;;;12.19;100.00
43436;BME280;36399;51.444;-2.018;2023-10-19T00:53:49;97747.78;;;12.24;100.00
43436;BME280;36399;51.444;-2.018;2023-10-19T00:56:16;97736.41;;;12.23;100.00
43436;BME280;36399;51.444;-2.018;2023-10-19T00:58:45;97735.56;;;12.23;100.00
43436;BME280;36399;51.444;-2.018;2023-10-19T01:01:24;97728.22;;;12.31;100.00
43436;BME280;36399;51.444;-2.018;2023-10-19T01:03:54;97725.47;;;12.34;100.00
43436;BME280;36399;51.444;-2.018;2023-10-19T01:06:23;97724.56;;;12.35;100.00
43436;BME280;36399;51.444;-2.018;2023-10-19T01:08:49;97719.88;;;12.43;100.00
43436;BME280;36399;51.444;-2.018;2023-10-19T01:11:17;97724.00;;;12.50;100.00
43436;BME280;36399;51.444;-2.018;2023-10-19T01:13:47;97709.06;;;12.51;100.00
43436;BME280;36399;51.444;-2.018;2023-10-19T01:16:15;97726.56;;;12.52;100.00
43436;BME280;36399;51.444;-2.018;2023-10-19T01:18:50;97730.00;;;12.54;100.00
43436;BME280;36399;51.444;-2.018;2023-10-19T01:21:21;97734.28;;;12.56;100.00
43436;BME280;36399;51.444;-2.018;2023-10-19T01:23:47;97729.16;;;12.53;100.00
43436;BME280;36399;51.444;-2.018;2023-10-19T01:26:14;97729.03;;;12.56;100.00
43436;BME280;36399;51.444;-2.018;2023-10-19T01:28:44;97726.22;;;12.61;100.00
43436;BME280;36399;51.444;-2.018;2023-10-19T01:31:22;97721.06;;;12.58;100.00
43436;BME280;36399;51.444;-2.018;2023-10-19T01:33:57;97715.69;;;12.61;100.00
43436;BME280;36399;51.444;-2.018;2023-10-19T01:36:25;97715.50;;;12.66;100.00
43436;BME280;36399;51.444;-2.018;2023-10-19T01:38:52;97725.22;;;12.63;100.00
43436;BME280;36399;51.444;-2.018;2023-10-19T01:41:24;97726.16;;;12.62;100.00
43436;BME280;36399;51.444;-2.018;2023-10-19T01:43:52;97727.88;;;12.63;100.00
43436;BME280;36399;51.444;-2.018;2023-10-19T01:46:20;97728.72;;;12.64;100.00
43436;BME280;36399;51.444;-2.018;2023-10-19T01:48:59;97725.22;;;12.63;100.00
43436;BME280;36399;51.444;-2.018;2023-10-19T01:51:29;97726.69;;;12.71;100.00
43436;BME280;36399;51.444;-2.018;2023-10-19T01:53:56;97715.44;;;12.67;100.00
43436;BME280;36399;51.444;-2.018;2023-10-19T01:56:22;97723.34;;;12.67;100.00
43436;BME280;36399;51.444;-2.018;2023-10-19T01:58:49;97712.75;;;12.69;100.00
43436;BME280;36399;51.444;-2.018;2023-10-19T02:01:18;97710.78;;;12.74;100.00
43436;BME280;36399;51.444;-2.018;2023-10-19T02:04:02;97706.25;;;12.77;100.00
43436;BME280;36399;51.444;-2.018;2023-10-19T02:06:30;97711.53;;;12.77;100.00
43436;BME280;36399;51.444;-2.018;2023-10-19T02:09:03;97701.00;;;12.77;100.00
43436;BME280;36399;51.444;-2.018;2023-10-19T02:11:35;97699.03;;;12.82;100.00
43436;BME280;36399;51.444;-2.018;2023-10-19T02:14:03;97704.47;;;12.78;100.00
43436;BME280;36399;51.444;-2.018;2023-10-19T02:16:40;97691.31;;;12.78;100.00
43436;BME280;36399;51.444;-2.018;2023-10-19T02:19:06;97686.72;;;12.83;100.00
43436;BME280;36399;51.444;-2.018;2023-10-19T02:21:33;97694.38;;;12.89;100.00
43436;BME280;36399;51.444;-2.018;2023-10-19T02:24:09;97688.84;;;12.95;100.00
43436;BME280;36399;51.444;-2.018;2023-10-19T02:26:35;97681.13;;;12.90;100.00
43436;BME280;36399;51.444;-2.018;2023-10-19T02:29:04;97679.19;;;12.95;100.00
43436;BME280;36399;51.444;-2.018;2023-10-19T02:31:34;97677.25;;;13.01;100.00
43436;BME280;36399;51.444;-2.018;2023-10-19T02:34:02;97685.06;;;13.02;100.00
43436;BME280;36399;51.444;-2.018;2023-10-19T02:36:31;97675.00;;;13.12;100.00
43436;BME280;36399;51.444;-2.018;2023-10-19T02:38:58;97671.94;;;13.22;100.00
43436;BME280;36399;51.444;-2.018;2023-10-19T02:41:26;97658.91;;;13.19;100.00
43436;BME280;36399;51.444;-2.018;2023-10-19T02:43:53;97663.13;;;13.23;100.00
43436;BME280;36399;51.444;-2.018;2023-10-19T02:46:33;97654.03;;;13.31;100.00
43436;BME280;36399;51.444;-2.018;2023-10-19T02:49:06;97652.56;;;13.44;100.00
43436;BME280;36399;51.444;-2.018;2023-10-19T02:51:41;97658.44;;;13.50;100.00
43436;BME280;36399;51.444;-2.018;2023-10-19T02:54:15;97646.00;;;13.54;100.00
43436;BME280;36399;51.444;-2.018;2023-10-19T02:56:50;97642.03;;;13.64;100.00
43436;BME280;36399;51.444;-2.018;2023-10-19T02:59:18;97636.34;;;13.73;100.00
43436;BME280;36399;51.444;-2.018;2023-10-19T03:02:00;97634.34;;;13.78;100.00
43436;BME280;36399;51.444;-2.018;2023-10-19T03:04:32;97632.22;;;13.86;100.00
43436;BME280;36399;51.444;-2.018;2023-10-19T03:07:02;97628.66;;;13.87;100.00
43436;BME280;36399;51.444;-2.018;2023-10-19T03:09:29;97617.97;;;13.90;100.00
43436;BME280;36399;51.444;-2.018;2023-10-19T03:11:56;97615.97;;;13.96;100.00
43436;BME280;36399;51.444;-2.018;2023-10-19T03:14:26;97609.91;;;13.94;100.00
43436;BME280;36399;51.444;-2.018;2023-10-19T03:16:53;97606.06;;;14.01;100.00
43436;BME280;36399;51.444;-2.018;2023-10-19T03:19:23;97613.06;;;14.02;100.00
43436;BME280;36399;51.444;-2.018;2023-10-19T03:21:50;97609.31;;;14.07;100.00
43436;BME280;36399;51.444;-2.018;2023-10-19T03:24:18;97601.19;;;14.12;100.00
43436;BME280;36399;51.444;-2.018;2023-10-19T03:27:05;97597.31;;;14.19;100.00
43436;BME280;36399;51.444;-2.018;2023-10-19T03:29:52;97586.75;;;14.19;100.00
43436;BME280;36399;51.444;-2.018;2023-10-19T03:32:22;97587.31;;;14.26;100.00
43436;BME280;36399;51.444;-2.018;2023-10-19T03:34:52;97587.88;;;14.32;100.00
43436;BME280;36399;51.444;-2.018;2023-10-19T03:37:25;97571.75;;;14.38;100.00
43436;BME280;36399;51.444;-2.018;2023-10-19T03:39:54;97572.03;;;14.32;100.00
43436;BME280;36399;51.444;-2.018;2023-10-19T03:42:23;97559.22;;;14.43;100.00
43436;BME280;36399;51.444;-2.018;2023-10-19T03:44:55;97554.78;;;14.44;100.00
43436;BME280;36399;51.444;-2.018;2023-10-19T03:47:22;97552.69;;;14.50;100.00
43436;BME280;36399;51.444;-2.018;2023-10-19T03:50:01;97549.91;;;14.53;100.00
43436;BME280;36399;51.444;-2.018;2023-10-19T03:52:34;97539.06;;;14.60;100.00
43436;BME280;36399;51.444;-2.018;2023-10-19T03:55:04;97529.53;;;14.57;100.00
43436;BME280;36399;51.444;-2.018;2023-10-19T03:57:45;97535.50;;;14.61;100.00
43436;BME280;36399;51.444;-2.018;2023-10-19T04:00:20;97508.25;;;14.60;100.00
43436;BME280;36399;51.444;-2.018;2023-10-19T04:02:51;97508.00;;;14.65;100.00
43436;BME280;36399;51.444;-2.018;2023-10-19T04:05:19;97507.78;;;14.69;100.00
43436;BME280;36399;51.444;-2.018;2023-10-19T04:07:52;97516.72;;;14.67;100.00
43436;BME280;36399;51.444;-2.018;2023-10-19T04:10:23;97514.06;;;14.67;100.00
43436;BME280;36399;51.444;-2.018;2023-10-19T04:12:55;97511.50;;;14.65;100.00
43436;BME280;36399;51.444;-2.018;2023-10-19T04:15:21;97504.59;;;14.63;100.00
43436;BME280;36399;51.444;-2.018;2023-10-19T04:17:48;97505.38;;;14.65;100.00
43436;BME280;36399;51.444;-2.018;2023-10-19T04:20:16;97501.88;;;14.64;100.00
43436;BME280;36399;51.444;-2.018;2023-10-19T04:22:50;97496.44;;;14.67;100.00
43436;BME280;36399;51.444;-2.018;2023-10-19T04:25:17;97506.91;;;14.69;100.00
43436;BME280;36399;51.444;-2.018;2023-10-19T04:27:51;97505.91;;;14.71;100.00
43436;BME280;36399;51.444;-2.018;2023-10-19T04:30:17;97504.03;;;14.73;100.00
43436;BME280;36399;51.444;-2.018;2023-10-19T04:32:53;97497.91;;;14.73;100.00
43436;BME280;36399;51.444;-2.018;2023-10-19T04:35:21;97510.50;;;14.68;100.00
43436;BME280;36399;51.444;-2.018;2023-10-19T04:37:51;97515.63;;;14.71;100.00
43436;BME280;36399;51.444;-2.018;2023-10-19T04:40:19;97521.84;;;14.70;100.00
43436;BME280;36399;51.444;-2.018;2023-10-19T04:42:46;97520.13;;;14.69;100.00
43436;BME280;36399;51.444;-2.018;2023-10-19T04:45:13;97530.84;;;14.66;100.00
43436;BME280;36399;51.444;-2.018;2023-10-19T04:47:39;97524.72;;;14.65;100.00
43436;BME280;36399;51.444;-2.018;2023-10-19T04:50:06;97517.72;;;14.64;100.00
43436;BME280;36399;51.444;-2.018;2023-10-19T04:52:33;97521.22;;;14.65;100.00
43436;BME280;36399;51.444;-2.018;2023-10-19T04:54:59;97523.16;;;14.61;100.00
43436;BME280;36399;51.444;-2.018;2023-10-19T04:57:26;97518.72;;;14.62;100.00
43436;BME280;36399;51.444;-2.018;2023-10-19T04:59:52;97518.16;;;14.55;100.00
43436;BME280;36399;51.444;-2.018;2023-10-19T05:02:18;97517.28;;;14.55;100.00
43436;BME280;36399;51.444;-2.018;2023-10-19T05:04:44;97515.59;;;14.53;100.00
43436;BME280;36399;51.444;-2.018;2023-10-19T05:07:13;97500.84;;;14.49;100.00
43436;BME280;36399;51.444;-2.018;2023-10-19T05:09:43;97507.19;;;14.45;100.00
43436;BME280;36399;51.444;-2.018;2023-10-19T05:12:09;97494.69;;;14.49;100.00
43436;BME280;36399;51.444;-2.018;2023-10-19T05:14:36;97493.00;;;14.48;100.00
43436;BME280;36399;51.444;-2.018;2023-10-19T05:17:02;97492.41;;;14.41;100.00
43436;BME280;36399;51.444;-2.018;2023-10-19T05:19:34;97496.13;;;14.37;100.00
43436;BME280;36399;51.444;-2.018;2023-10-19T05:22:01;97498.78;;;14.37;100.00
43436;BME280;36399;51.444;-2.018;2023-10-19T05:24:28;97491.09;;;14.33;100.00
43436;BME280;36399;51.444;-2.018;2023-10-19T05:26:54;97490.16;;;14.34;100.00
43436;BME280;36399;51.444;-2.018;2023-10-19T05:29:20;97493.81;;;14.31;100.00
43436;BME280;36399;51.444;-2.018;2023-10-19T05:31:47;97491.94;;;14.33;100.00
43436;BME280;36399;51.444;-2.018;2023-10-19T05:34:13;97488.59;;;14.30;100.00
43436;BME280;36399;51.444;-2.018;2023-10-19T05:36:42;97488.47;;;14.33;100.00
43436;BME280;36399;51.444;-2.018;2023-10-19T05:39:11;97485.13;;;14.29;100.00
43436;BME280;36399;51.444;-2.018;2023-10-19T05:41:39;97477.91;;;14.33;100.00
43436;BME280;36399;51.444;-2.018;2023-10-19T05:44:05;97475.03;;;14.37;100.00
43436;BME280;36399;51.444;-2.018;2023-10-19T05:46:31;97468.19;;;14.33;100.00
43436;BME280;36399;51.444;-2.018;2023-10-19T05:48:57;97464.63;;;14.34;100.00
43436;BME280;36399;51.444;-2.018;2023-10-19T05:51:24;97463.94;;;14.31;100.00
43436;BME280;36399;51.444;-2.018;2023-10-19T05:53:50;97459.19;;;14.37;100.00
43436;BME280;36399;51.444;-2.018;2023-10-19T05:56:17;97464.72;;;14.33;100.00
43436;BME280;36399;51.444;-2.018;2023-10-19T05:58:46;97466.34;;;14.35;100.00
43436;BME280;36399;51.444;-2.018;2023-10-19T06:01:16;97460.91;;;14.38;100.00
43436;BME280;36399;51.444;-2.018;2023-10-19T06:03:43;97466.25;;;14.37;100.00
43436;BME280;36399;51.444;-2.018;2023-10-19T06:06:10;97466.97;;;14.40;100.00
43436;BME280;36399;51.444;-2.018;2023-10-19T06:08:36;97465.16;;;14.41;100.00
43436;BME280;36399;51.444;-2.018;2023-10-19T06:11:02;97464.63;;;14.34;100.00
43436;BME280;36399;51.444;-2.018;2023-10-19T06:13:28;97468.97;;;14.35;100.00
43436;BME280;36399;51.444;-2.018;2023-10-19T06:15:55;97470.84;;;14.33;100.00
43436;BME280;36399;51.444;-2.018;2023-10-19T06:18:21;97480.16;;;14.40;100.00
43436;BME280;36399;51.444;-2.018;2023-10-19T06:20:47;97489.84;;;14.40;100.00
43436;BME280;36399;51.444;-2.018;2023-10-19T06:23:13;97480.03;;;14.43;100.00
43436;BME280;36399;51.444;-2.018;2023-10-19T06:25:40;97480.03;;;14.43;100.00
43436;BME280;36399;51.444;-2.018;2023-10-19T06:28:09;97484.22;;;14.47;100.00
43436;BME280;36399;51.444;-2.018;2023-10-19T06:30:36;97492.16;;;14.47;100.00
43436;BME280;36399;51.444;-2.018;2023-10-19T06:33:03;97481.44;;;14.50;100.00
43436;BME280;36399;51.444;-2.018;2023-10-19T06:35:30;97490.13;;;14.52;100.00
43436;BME280;36399;51.444;-2.018;2023-10-19T06:38:00;97495.72;;;14.46;100.00
43436;BME280;36399;51.444;-2.018;2023-10-19T06:40:29;97489.66;;;14.44;100.00
43436;BME280;36399;51.444;-2.018;2023-10-19T06:42:57;97479.19;;;14.43;100.00
43436;BME280;36399;51.444;-2.018;2023-10-19T06:45:25;97491.53;;;14.42;100.00
43436;BME280;36399;51.444;-2.018;2023-10-19T06:47:52;97503.84;;;14.42;100.00
43436;BME280;36399;51.444;-2.018;2023-10-19T06:50:22;97500.84;;;14.49;100.00
43436;BME280;36399;51.444;-2.018;2023-10-19T06:52:49;97501.16;;;14.43;100.00
43436;BME280;36399;51.444;-2.018;2023-10-19T06:55:17;97509.00;;;14.45;100.00
43436;BME280;36399;51.444;-2.018;2023-10-19T06:57:48;97524.09;;;14.41;100.00
43436;BME280;36399;51.444;-2.018;2023-10-19T07:00:15;97529.25;;;14.44;100.00
43436;BME280;36399;51.444;-2.018;2023-10-19T07:02:45;97527.53;;;14.43;100.00
43436;BME280;36399;51.444;-2.018;2023-10-19T07:05:13;97531.22;;;14.39;100.00
43436;BME280;36399;51.444;-2.018;2023-10-19T07:07:44;97529.25;;;14.44;100.00
43436;BME280;36399;51.444;-2.018;2023-10-19T07:10:12;97524.00;;;14.26;100.00
43436;BME280;36399;51.444;-2.018;2023-10-19T07:12:44;97527.00;;;14.18;100.00
43436;BME280;36399;51.444;-2.018;2023-10-19T07:15:10;97525.75;;;14.08;100.00
43436;BME280;36399;51.444;-2.018;2023-10-19T07:17:43;97516.47;;;13.99;100.00
43436;BME280;36399;51.444;-2.018;2023-10-19T07:20:11;97519.63;;;13.88;100.00
43436;BME280;36399;51.444;-2.018;2023-10-19T07:22:54;97510.44;;;13.78;100.00
43436;BME280;36399;51.444;-2.018;2023-10-19T07:25:22;97515.84;;;13.75;100.00
43436;BME280;36399;51.444;-2.018;2023-10-19T07:27:49;97499.09;;;13.76;100.00
43436;BME280;36399;51.444;-2.018;2023-10-19T07:30:19;97505.16;;;13.78;100.00
43436;BME280;36399;51.444;-2.018;2023-10-19T07:32:52;97495.53;;;13.77;100.00
43436;BME280;36399;51.444;-2.018;2023-10-19T07:35:24;97495.53;;;13.77;100.00
43436;BME280;36399;51.444;-2.018;2023-10-19T07:37:55;97501.75;;;13.76;100.00
43436;BME280;36399;51.444;-2.018;2023-10-19T07:40:22;97500.97;;;13.74;100.00
43436;BME280;36399;51.444;-2.018;2023-10-19T07:42:50;97497.69;;;13.69;100.00
43436;BME280;36399;51.444;-2.018;2023-10-19T07:45:18;97500.41;;;13.68;100.00
43436;BME280;36399;51.444;-2.018;2023-10-19T07:47:44;97507.31;;;13.70;100.00
43436;BME280;36399;51.444;-2.018;2023-10-19T07:50:11;97510.50;;;13.77;100.00
43436;BME280;36399;51.444;-2.018;2023-10-19T07:52:50;97517.91;;;13.87;100.00
43436;BME280;36399;51.444;-2.018;2023-10-19T07:55:18;97514.19;;;13.92;100.00
43436;BME280;36399;51.444;-2.018;2023-10-19T07:57:44;97507.78;;;13.97;100.00
43436;BME280;36399;51.444;-2.018;2023-10-19T08:00:12;97512.88;;;14.19;100.00
43436;BME280;36399;51.444;-2.018;2023-10-19T08:02:41;97517.25;;;14.37;100.00
43436;BME280;36399;51.444;-2.018;2023-10-19T08:05:08;97516.16;;;14.41;100.00
43436;BME280;36399;51.444;-2.018;2023-10-19T08:07:34;97510.09;;;14.58;100.00
43436;BME280;36399;51.444;-2.018;2023-10-19T08:10:02;97501.53;;;14.88;100.00
43436;BME280;36399;51.444;-2.018;2023-10-19T08:12:31;97505.00;;;15.05;100.00
43436;BME280;36399;51.444;-2.018;2023-10-19T08:14:58;97508.31;;;15.59;100.00
43436;BME280;36399;51.444;-2.018;2023-10-19T08:17:25;97503.50;;;15.67;100.00
43436;BME280;36399;51.444;-2.018;2023-10-19T08:19:51;97498.56;;;15.77;100.00
43436;BME280;36399;51.444;-2.018;2023-10-19T08:22:17;97499.56;;;15.74;100.00
43436;BME280;36399;51.444;-2.018;2023-10-19T08:24:43;97486.94;;;15.80;100.00
43436;BME280;36399;51.444;-2.018;2023-10-19T08:27:09;97482.41;;;15.82;100.00
43436;BME280;36399;51.444;-2.018;2023-10-19T08:29:37;97479.00;;;15.80;100.00
43436;BME280;36399;51.444;-2.018;2023-10-19T08:32:03;97466.97;;;15.90;100.00
43436;BME280;36399;51.444;-2.018;2023-10-19T08:34:29;97460.16;;;15.86;100.00
43436;BME280;36399;51.444;-2.018;2023-10-19T08:36:58;97453.66;;;15.91;100.00
43436;BME280;36399;51.444;-2.018;2023-10-19T08:39:25;97443.56;;;15.98;100.00
43436;BME280;36399;51.444;-2.018;2023-10-19T08:41:51;97440.25;;;16.40;100.00
43436;BME280;36399;51.444;-2.018;2023-10-19T08:44:19;97429.31;;;16.76;100.00
43436;BME280;36399;51.444;-2.018;2023-10-19T08:46:45;97433.28;;;16.83;100.00
43436;BME280;36399;51.444;-2.018;2023-10-19T08:49:15;97420.59;;;16.74;100.00
43436;BME280;36399;51.444;-2.018;2023-10-19T08:51:45;97417.97;;;16.58;100.00
43436;BME280;36399;51.444;-2.018;2023-10-19T08:54:13;97418.25;;;16.54;100.00
43436;BME280;36399;51.444;-2.018;2023-10-19T08:56:40;97418.34;;;16.52;100.00
43436;BME280;36399;51.444;-2.018;2023-10-19T08:59:13;97419.75;;;16.44;100.00
43436;BME280;36399;51.444;-2.018;2023-10-19T09:01:42;97419.56;;;16.47;100.00
43436;BME280;36399;51.444;-2.018;2023-10-19T09:04:12;97421.06;;;16.51;100.00
43436;BME280;36399;51.444;-2.018;2023-10-19T09:06:42;97412.38;;;16.49;100.00
43436;BME280;36399;51.444;-2.018;2023-10-19T09:09:12;97418.47;;;16.65;100.00
43436;BME280;36399;51.444;-2.018;2023-10-19T09:11:51;97407.38;;;16.74;100.00
43436;BME280;36399;51.444;-2.018;2023-10-19T09:14:33;97401.47;;;17.12;100.00
43436;BME280;36399;51.444;-2.018;2023-10-19T09:17:00;97399.91;;;17.23;100.00
43436;BME280;36399;51.444;-2.018;2023-10-19T09:22:04;97385.56;;;17.40;100.00
43436;BME280;36399;51.444;-2.018;2023-10-19T09:24:36;97371.06;;;17.46;100.00
43436;BME280;36399;51.444;-2.018;2023-10-19T09:27:03;97377.38;;;17.57;100.00
43436;BME280;36399;51.444;-2.018;2023-10-19T09:29:30;97361.25;;;17.75;100.00
43436;BME280;36399;51.444;-2.018;2023-10-19T09:32:00;97343.81;;;17.97;100.00
43436;BME280;36399;51.444;-2.018;2023-10-19T09:34:30;97341.38;;;18.07;100.00
43436;BME280;36399;51.444;-2.018;2023-10-19T09:37:00;97337.78;;;18.73;100.00
43436;BME280;36399;51.444;-2.018;2023-10-19T09:39:30;97328.66;;;18.77;100.00
43436;BME280;36399;51.444;-2.018;2023-10-19T09:42:06;97330.41;;;18.26;100.00
43436;BME280;36399;51.444;-2.018;2023-10-19T09:44:38;97333.31;;;18.74;100.00
43436;BME280;36399;51.444;-2.018;2023-10-19T09:47:10;97321.09;;;19.20;100.00
43436;BME280;36399;51.444;-2.018;2023-10-19T09:49:36;97310.00;;;19.39;100.00
43436;BME280;36399;51.444;-2.018;2023-10-19T09:52:03;97314.03;;;19.45;100.00
43436;BME280;36399;51.444;-2.018;2023-10-19T09:54:55;97306.19;;;19.91;100.00
43436;BME280;36399;51.444;-2.018;2023-10-19T09:57:52;97313.31;;;19.67;100.00
43436;BME280;36399;51.444;-2.018;2023-10-19T10:00:17;97308.19;;;19.52;100.00
43436;BME280;36399;51.444;-2.018;2023-10-19T10:02:50;97320.84;;;19.00;100.00
43436;BME280;36399;51.444;-2.018;2023-10-19T10:10:48;97325.63;;;17.64;100.00
43436;BME280;36399;51.444;-2.018;2023-10-19T10:15:52;97338.00;;;18.05;100.00
43436;BME280;36399;51.444;-2.018;2023-10-19T10:18:19;97336.47;;;17.88;100.00
43436;BME280;36399;51.444;-2.018;2023-10-19T10:20:45;97340.94;;;17.88;100.00
43436;BME280;36399;51.444;-2.018;2023-10-19T10:23:21;97346.19;;;17.61;100.00
43436;BME280;36399;51.444;-2.018;2023-10-19T10:25:50;97351.00;;;17.42;100.00
43436;BME280;36399;51.444;-2.018;2023-10-19T10:28:20;97353.44;;;17.45;100.00
43436;BME280;36399;51.444;-2.018;2023-10-19T10:31:08;97361.34;;;17.32;100.00
43436;BME280;36399;51.444;-2.018;2023-10-19T10:33:53;97355.88;;;17.21;100.00
43436;BME280;36399;51.444;-2.018;2023-10-19T10:36:21;97363.41;;;17.41;100.00
43436;BME280;36399;51.444;-2.018;2023-10-19T10:38:51;97362.44;;;17.42;100.00
43436;BME280;36399;51.444;-2.018;2023-10-19T10:41:24;97360.75;;;17.41;100.00
43436;BME280;36399;51.444;-2.018;2023-10-19T10:43:58;97357.56;;;17.22;100.00
43436;BME280;36399;51.444;-2.018;2023-10-19T10:46:25;97361.72;;;17.26;100.00
43436;BME280;36399;51.444;-2.018;2023-10-19T10:48:53;97358.09;;;17.41;100.00
43436;BME280;36399;51.444;-2.018;2023-10-19T10:51:23;97356.16;;;17.57;100.00
43436;BME280;36399;51.444;-2.018;2023-10-19T10:53:51;97351.91;;;17.55;100.00
43436;BME280;36399;51.444;-2.018;2023-10-19T10:56:18;97359.75;;;17.56;100.00
43436;BME280;36399;51.444;-2.018;2023-10-19T10:58:45;97358.66;;;17.46;100.00
43436;BME280;36399;51.444;-2.018;2023-10-19T11:01:11;97369.66;;;17.40;100.00
43436;BME280;36399;51.444;-2.018;2023-10-19T11:03:42;97351.84;;;17.42;100.00
43436;BME280;36399;51.444;-2.018;2023-10-19T11:06:09;97363.25;;;17.30;100.00
43436;BME280;36399;51.444;-2.018;2023-10-19T11:08:36;97364.78;;;17.20;100.00
43436;BME280;36399;51.444;-2.018;2023-10-19T11:11:11;97363.34;;;17.14;100.00
43436;BME280;36399;51.444;-2.018;2023-10-19T11:13:38;97367.31;;;17.07;100.00
43436;BME280;36399;51.444;-2.018;2023-10-19T11:16:06;97371.59;;;16.95;100.00
43436;BME280;36399;51.444;-2.018;2023-10-19T11:18:40;97383.53;;;16.74;100.00
43436;BME280;36399;51.444;-2.018;2023-10-19T11:21:09;97389.19;;;16.68;100.00
43436;BME280;36399;51.444;-2.018;2023-10-19T11:26:04;97400.91;;;17.07;100.00
43436;BME280;36399;51.444;-2.018;2023-10-19T11:28:32;97403.59;;;17.21;100.00
43436;BME280;36399;51.444;-2.018;2023-10-19T11:31:22;97403.97;;;17.29;100.00
43436;BME280;36399;51.444;-2.018;2023-10-19T11:33:49;97394.31;;;17.28;100.00
43436;BME280;36399;51.444;-2.018;2023-10-19T11:36:17;97392.22;;;17.33;100.00
43436;BME280;36399;51.444;-2.018;2023-10-19T11:38:48;97385.59;;;17.12;100.00
43436;BME280;36399;51.444;-2.018;2023-10-19T11:41:15;97385.28;;;17.16;100.00
43436;BME280;36399;51.444;-2.018;2023-10-19T11:43:46;97382.47;;;17.19;100.00
43436;BME280;36399;51.444;-2.018;2023-10-19T11:46:13;97369.97;;;16.93;100.00
43436;BME280;36399;51.444;-2.018;2023-10-19T11:48:43;97368.84;;;16.83;100.00
43436;BME280;36399;51.444;-2.018;2023-10-19T11:51:10;97374.34;;;16.80;100.00
43436;BME280;36399;51.444;-2.018;2023-10-19T11:53:43;97375.94;;;16.82;100.00
43436;BME280;36399;51.444;-2.018;2023-10-19T11:56:11;97366.22;;;16.68;100.00
43436;BME280;36399;51.444;-2.018;2023-10-19T11:58:39;97373.72;;;16.60;100.00
43436;BME280;36399;51.444;-2.018;2023-10-19T12:01:08;97370.56;;;16.39;100.00
43436;BME280;36399;51.444;-2.018;2023-10-19T12:03:38;97372.50;;;16.22;100.00
43436;BME280;36399;51.444;-2.018;2023-10-19T12:06:06;97386.19;;;16.14;100.00
43436;BME280;36399;51.444;-2.018;2023-10-19T12:08:34;97391.22;;;16.19;100.00
43436;BME280;36399;51.444;-2.018;2023-10-19T12:11:00;97385.09;;;16.18;100.00
43436;BME280;36399;51.444;-2.018;2023-10-19T12:13:32;97390.09;;;16.23;100.00
43436;BME280;36399;51.444;-2.018;2023-10-19T12:15:58;97401.63;;;16.22;100.00
43436;BME280;36399;51.444;-2.018;2023-10-19T12:18:25;97396.06;;;16.26;100.00
43436;BME280;36399;51.444;-2.018;2023-10-19T12:20:52;97395.22;;;16.26;100.00
43436;BME280;36399;51.444;-2.018;2023-10-19T12:23:22;97399.47;;;16.28;100.00
43436;BME280;36399;51.444;-2.018;2023-10-19T12:25:49;97394.00;;;16.31;100.00
43436;BME280;36399;51.444;-2.018;2023-10-19T12:28:15;97391.84;;;16.52;100.00
43436;BME280;36399;51.444;-2.018;2023-10-19T12:30:41;97397.72;;;16.73;100.00
43436;BME280;36399;51.444;-2.018;2023-10-19T12:33:08;97392.00;;;16.65;100.00
43436;BME280;36399;51.444;-2.018;2023-10-19T12:35:41;97385.31;;;16.74;100.00
43436;BME280;36399;51.444;-2.018;2023-10-19T12:38:33;97383.69;;;17.28;100.00
43436;BME280;36399;51.444;-2.018;2023-10-19T12:40:58;97367.88;;;17.82;100.00
43436;BME280;36399;51.444;-2.018;2023-10-19T12:43:24;97347.03;;;18.80;100.00
43436;BME280;36399;51.444;-2.018;2023-10-19T12:45:51;97305.03;;;18.85;100.00
43436;BME280;36399;51.444;-2.018;2023-10-19T12:48:19;97279.19;;;18.37;100.00
43436;BME280;36399;51.444;-2.018;2023-10-19T12:50:46;97283.53;;;18.12;100.00
43436;BME280;36399;51.444;-2.018;2023-10-19T12:53:13;97280.31;;;17.82;100.00
43436;BME280;36399;51.444;-2.018;2023-10-19T12:55:39;97282.91;;;17.42;100.00
43436;BME280;36399;51.444;-2.018;2023-10-19T12:58:05;97299.84;;;16.98;100.00
43436;BME280;36399;51.444;-2.018;2023-10-19T13:00:36;97301.22;;;16.77;100.00
43436;BME280;36399;51.444;-2.018;2023-10-19T13:03:04;97322.44;;;16.61;100.00
43436;BME280;36399;51.444;-2.018;2023-10-19T13:05:37;97325.16;;;16.31;100.00